ADY weather

Club Aereo Del Yaqui Airport
Cajeme, Sonora, Mexico

Public forecast

Using degrees Celsius for public forecast. Weather courtesy of forecast.io.

METAR (pilot weather report)

Report is more than 6 hours old.

Closest report is Ciudad Obregón International Airport, 10.5 nm (19.4 km) ESE. Retrieved 2019/06/27 01:43 UTC (11 hours ago):

MMCN 270143Z 24005KT 10SM SCT200 34/10 A2980 RMK 8/008 HZY

TAF (pilot weather forecast)

Forecast is more than 6 hours old.

Closest forecast is Ciudad Obregón International Airport, 10.5 nm (19.4 km) ESE. Retrieved 2019/06/27 06:23 UTC (6 hours ago):

TAF MMCN 270516Z 2706/2806 00000KT P6SM SCT200 FM271800 24010KT P6SM SCT220 BECMG 2803/2805 28004KT